createdAt,value
2016-06-13T00:00:09.871Z,999.07
2016-06-13T00:01:09.875Z,999.03
2016-06-13T00:02:09.847Z,999.06
2016-06-13T00:03:09.865Z,999.05
2016-06-13T00:04:09.852Z,999
2016-06-13T00:05:09.809Z,999.01
2016-06-13T00:06:09.812Z,999.02
2016-06-13T00:07:09.800Z,998.95
2016-06-13T00:08:09.770Z,998.95
2016-06-13T00:09:09.759Z,998.92
2016-06-13T00:10:09.746Z,998.92
2016-06-13T00:11:09.734Z,998.91
2016-06-13T00:12:09.721Z,998.91
2016-06-13T00:13:09.694Z,998.9
2016-06-13T00:14:09.680Z,998.89
2016-06-13T00:15:09.667Z,998.87
2016-06-13T00:16:09.670Z,998.88
2016-06-13T00:17:09.659Z,998.88
2016-06-13T00:18:09.646Z,998.85
2016-06-13T00:19:09.617Z,998.86
2016-06-13T00:20:09.605Z,998.88
2016-06-13T00:21:09.593Z,998.85
2016-06-13T00:22:09.580Z,998.86
2016-06-13T00:23:09.567Z,998.88
2016-06-13T00:24:09.556Z,998.83
2016-06-13T00:25:09.542Z,998.83
2016-06-13T00:26:09.530Z,998.85
2016-06-13T00:27:09.517Z,998.82
2016-06-13T00:28:09.504Z,998.85
2016-06-13T00:29:09.493Z,998.82
2016-06-13T00:30:09.479Z,998.84
2016-06-13T00:31:09.466Z,998.83
2016-06-13T00:32:09.455Z,998.85
2016-06-13T00:33:09.442Z,998.82
2016-06-13T00:34:09.414Z,998.78
2016-06-13T00:35:09.401Z,998.82
2016-06-13T00:36:09.389Z,998.74
2016-06-13T00:37:09.376Z,998.73
2016-06-13T00:38:09.363Z,998.75
2016-06-13T00:39:09.351Z,998.75
2016-06-13T00:40:09.339Z,998.72
2016-06-13T00:41:09.326Z,998.73
2016-06-13T00:42:09.313Z,998.71
2016-06-13T00:43:09.301Z,998.67
2016-06-13T00:44:09.289Z,998.72
2016-06-13T00:45:09.275Z,998.66
2016-06-13T00:46:09.263Z,998.73
2016-06-13T00:47:09.250Z,998.7
2016-06-13T00:48:09.238Z,998.68
2016-06-13T00:49:09.226Z,998.66
2016-06-13T00:50:09.213Z,998.68
2016-06-13T00:51:09.200Z,998.68
2016-06-13T00:52:09.188Z,998.61
2016-06-13T00:53:09.175Z,998.69
2016-06-13T00:54:09.163Z,998.62
2016-06-13T00:55:09.134Z,998.65
2016-06-13T00:56:09.123Z,998.64
2016-06-13T00:57:09.110Z,998.6
2016-06-13T00:58:09.097Z,998.6
2016-06-13T00:59:09.085Z,998.67
2016-06-13T01:00:09.072Z,998.61
2016-06-13T01:01:09.075Z,998.6
2016-06-13T01:02:09.047Z,998.6
2016-06-13T01:03:09.034Z,998.6
2016-06-13T01:04:09.022Z,998.61
2016-06-13T01:05:09.010Z,998.56
2016-06-13T01:06:08.996Z,998.6
2016-06-13T01:07:08.984Z,998.54
2016-06-13T01:08:08.972Z,998.56
2016-06-13T01:09:08.958Z,998.58
2016-06-13T01:10:08.946Z,998.53
2016-06-13T01:11:08.949Z,998.53
2016-06-13T01:12:08.922Z,998.54
2016-06-13T01:13:08.909Z,998.52
2016-06-13T01:14:08.895Z,998.54
2016-06-13T01:15:08.946Z,998.51
2016-06-13T01:16:08.934Z,998.49
2016-06-13T01:17:08.858Z,998.52
2016-06-13T01:18:08.861Z,998.49
2016-06-13T01:19:08.818Z,998.46
2016-06-13T01:20:08.805Z,998.39
2016-06-13T01:21:08.792Z,998.4
2016-06-13T01:22:08.781Z,998.45
2016-06-13T01:23:08.784Z,998.44
2016-06-13T01:24:08.754Z,998.35
2016-06-13T01:25:08.742Z,998.35
2016-06-13T01:26:08.729Z,998.34
2016-06-13T01:27:08.718Z,998.32
2016-06-13T01:28:08.721Z,998.32
2016-06-13T01:29:08.692Z,998.27
2016-06-13T01:30:08.680Z,998.29
2016-06-13T01:31:08.667Z,998.29
2016-06-13T01:32:08.654Z,998.28
2016-06-13T01:33:08.642Z,998.22
2016-06-13T01:34:08.630Z,998.23
2016-06-13T01:35:08.617Z,998.25
2016-06-13T01:36:08.604Z,998.25
2016-06-13T01:37:08.592Z,998.19
2016-06-13T01:38:08.580Z,998.22
2016-06-13T01:39:08.567Z,998.17
2016-06-13T01:40:08.553Z,998.16
2016-06-13T01:41:08.542Z,998.13
2016-06-13T01:42:08.529Z,998.12
2016-06-13T01:43:08.517Z,998.11
2016-06-13T01:44:08.504Z,998.1
2016-06-13T01:45:08.492Z,998.06
2016-06-13T01:46:08.479Z,998.06
2016-06-13T01:47:08.466Z,998.01
2016-06-13T01:48:08.438Z,997.97
2016-06-13T01:49:08.425Z,997.95
2016-06-13T01:50:08.414Z,997.95
2016-06-13T01:51:08.400Z,997.94
2016-06-13T01:52:08.387Z,997.9
2016-06-13T01:53:08.375Z,997.93
2016-06-13T01:54:08.363Z,997.9
2016-06-13T01:55:08.349Z,997.91
2016-06-13T01:56:08.353Z,997.9
2016-06-13T01:57:08.325Z,997.93
2016-06-13T01:58:08.313Z,997.85
2016-06-13T01:59:08.300Z,997.88
2016-06-13T02:00:08.287Z,997.8
2016-06-13T02:01:08.276Z,997.78
2016-06-13T02:02:08.262Z,997.77
2016-06-13T02:03:08.249Z,997.73
2016-06-13T02:04:08.238Z,997.72
2016-06-13T02:05:08.224Z,997.72
2016-06-13T02:06:08.213Z,997.72
2016-06-13T02:07:08.200Z,997.72
2016-06-13T02:08:08.186Z,997.7
2016-06-13T02:09:08.175Z,997.73
2016-06-13T02:10:08.162Z,997.7
2016-06-13T02:11:08.431Z,997.72
2016-06-13T02:12:08.137Z,997.67
2016-06-13T02:13:08.124Z,997.71
2016-06-13T02:14:08.112Z,997.67
2016-06-13T02:15:08.100Z,997.63
2016-06-13T02:16:08.071Z,997.67
2016-06-13T02:17:08.167Z,997.58
2016-06-13T02:18:08.077Z,997.59
2016-06-13T02:19:08.034Z,997.55
2016-06-13T02:20:08.021Z,997.51
2016-06-13T02:21:08.009Z,997.53
2016-06-13T02:22:07.996Z,997.55
2016-06-13T02:23:07.983Z,997.51
2016-06-13T02:24:07.986Z,997.5
2016-06-13T02:25:08.177Z,997.48
2016-06-13T02:26:07.945Z,997.49
2016-06-13T02:27:07.933Z,997.53
2016-06-13T02:28:07.920Z,997.52
2016-06-13T02:29:07.909Z,997.5
2016-06-13T02:30:07.895Z,997.51
2016-06-13T02:31:07.883Z,997.5
2016-06-13T02:32:07.871Z,997.42
2016-06-13T02:33:08.155Z,997.41
2016-06-13T02:34:07.844Z,997.38
2016-06-13T02:35:07.833Z,997.4
2016-06-13T02:36:07.820Z,997.38
2016-06-13T02:37:07.808Z,997.39
2016-06-13T02:38:07.795Z,997.38
2016-06-13T02:39:07.782Z,997.37
2016-06-13T02:40:07.770Z,997.37
2016-06-13T02:41:08.210Z,997.35
2016-06-13T02:42:07.744Z,997.32
2016-06-13T02:43:07.733Z,997.35
2016-06-13T02:44:07.720Z,997.28
2016-06-13T02:45:07.707Z,997.27
2016-06-13T02:46:07.695Z,997.27
2016-06-13T02:47:07.667Z,997.27
2016-06-13T02:48:07.670Z,997.24
2016-06-13T02:49:08.344Z,997.25
2016-06-13T02:50:07.628Z,997.24
2016-06-13T02:51:07.616Z,997.23
2016-06-13T02:52:07.604Z,997.23
2016-06-13T02:53:07.591Z,997.29
2016-06-13T02:54:07.578Z,997.21
2016-06-13T02:55:07.567Z,997.19
2016-06-13T02:56:08.287Z,997.25
2016-06-13T02:57:08.197Z,997.2
2016-06-13T02:58:07.529Z,997.2
2016-06-13T02:59:07.516Z,997.23
2016-06-13T03:00:07.504Z,997.17
2016-06-13T03:01:07.490Z,997.21
2016-06-13T03:02:07.478Z,997.19
2016-06-13T03:03:07.466Z,997.17
2016-06-13T03:04:07.453Z,997.12
2016-06-13T03:05:07.487Z,997.13
2016-06-13T03:06:07.428Z,997.05
2016-06-13T03:07:07.415Z,997.06
2016-06-13T03:08:07.404Z,997.06
2016-06-13T03:09:07.390Z,997.07
2016-06-13T03:10:07.377Z,997.04
2016-06-13T03:11:07.366Z,997.03
2016-06-13T03:12:07.994Z,996.99
2016-06-13T03:13:07.480Z,996.96
2016-06-13T03:14:07.328Z,996.94
2016-06-13T03:15:07.315Z,996.93
2016-06-13T03:16:07.302Z,996.89
2016-06-13T03:17:07.274Z,996.92
2016-06-13T03:18:07.262Z,996.9
2016-06-13T03:19:07.249Z,996.88
2016-06-13T03:20:07.236Z,996.88
2016-06-13T03:21:07.475Z,996.86
2016-06-13T03:22:07.211Z,996.83
2016-06-13T03:23:07.199Z,996.86
2016-06-13T03:24:07.186Z,996.85
2016-06-13T03:25:07.174Z,996.86
2016-06-13T03:26:07.161Z,996.83
2016-06-13T03:27:07.186Z,996.8
2016-06-13T03:28:07.198Z,996.76
2016-06-13T03:29:08.476Z,996.74
2016-06-13T03:30:07.254Z,996.71
2016-06-13T03:31:07.282Z,996.67
2016-06-13T03:32:07.296Z,996.66
2016-06-13T03:33:07.296Z,996.7
2016-06-13T03:34:07.299Z,996.67
2016-06-13T03:35:07.300Z,996.69
2016-06-13T03:36:07.302Z,996.68
2016-06-13T03:37:07.799Z,996.7
2016-06-13T03:38:07.291Z,996.63
2016-06-13T03:39:07.285Z,996.69
2016-06-13T03:40:07.277Z,996.67
2016-06-13T03:41:07.270Z,996.72
2016-06-13T03:42:07.261Z,996.74
2016-06-13T03:43:07.250Z,996.68
2016-06-13T03:44:07.239Z,996.73
2016-06-13T03:45:07.213Z,996.74
2016-06-13T03:46:07.203Z,996.75
2016-06-13T03:47:07.208Z,996.71
2016-06-13T03:48:07.180Z,996.73
2016-06-13T03:49:07.183Z,996.73
2016-06-13T03:50:07.156Z,996.73
2016-06-13T03:51:07.144Z,996.76
2016-06-13T03:52:07.133Z,996.78
2016-06-13T03:53:07.119Z,996.77
2016-06-13T03:54:07.108Z,996.79
2016-06-13T03:55:07.094Z,996.77
2016-06-13T03:56:07.082Z,996.8
2016-06-13T03:57:07.070Z,996.79
2016-06-13T03:58:07.057Z,996.81
2016-06-13T03:59:07.044Z,996.74
2016-06-13T04:00:07.032Z,996.77
2016-06-13T04:01:07.019Z,996.79
2016-06-13T04:02:07.007Z,996.75
2016-06-13T04:03:06.995Z,996.76
2016-06-13T04:04:06.981Z,996.73
2016-06-13T04:05:06.970Z,996.7
2016-06-13T04:06:06.956Z,996.72
2016-06-13T04:07:06.944Z,996.73
2016-06-13T04:08:06.932Z,996.63
2016-06-13T04:09:06.918Z,996.69
2016-06-13T04:10:06.907Z,996.66
2016-06-13T04:11:06.894Z,996.59
2016-06-13T04:12:06.881Z,996.57
2016-06-13T04:13:06.869Z,996.5
2016-06-13T04:14:06.840Z,996.46
2016-06-13T04:15:06.828Z,996.47
2016-06-13T04:16:06.832Z,996.54
2016-06-13T04:17:06.803Z,996.54
2016-06-13T04:18:06.806Z,996.55
2016-06-13T04:19:06.778Z,996.51
2016-06-13T04:20:06.766Z,996.51
2016-06-13T04:21:06.752Z,996.46
2016-06-13T04:22:06.755Z,996.44
2016-06-13T04:23:06.727Z,996.43
2016-06-13T04:24:06.715Z,996.39
2016-06-13T04:25:06.703Z,996.38
2016-06-13T04:26:06.689Z,996.39
2016-06-13T04:27:06.677Z,996.37
2016-06-13T04:28:06.665Z,996.33
2016-06-13T04:29:06.652Z,996.32
2016-06-13T04:30:06.639Z,996.39
2016-06-13T04:31:06.628Z,996.37
2016-06-13T04:32:06.614Z,996.44
2016-06-13T04:33:06.602Z,996.4
2016-06-13T04:34:06.589Z,996.32
2016-06-13T04:35:06.576Z,996.26
2016-06-13T04:36:06.565Z,996.27
2016-06-13T04:37:06.551Z,996.31
2016-06-13T04:38:06.539Z,996.3
2016-06-13T04:39:06.527Z,996.3
2016-06-13T04:40:06.514Z,996.25
2016-06-13T04:41:06.502Z,996.33
2016-06-13T04:42:06.489Z,996.25
2016-06-13T04:43:06.476Z,996.22
2016-06-13T04:44:06.465Z,996.33
2016-06-13T04:45:06.435Z,996.32
2016-06-13T04:46:06.423Z,996.28
2016-06-13T04:47:06.411Z,996.25
2016-06-13T04:48:06.398Z,996.32
2016-06-13T04:49:06.385Z,996.3
2016-06-13T04:50:06.372Z,996.28
2016-06-13T04:51:06.361Z,996.25
2016-06-13T04:52:06.348Z,996.27
2016-06-13T04:53:06.351Z,996.24
2016-06-13T04:54:06.323Z,996.19
2016-06-13T04:55:06.310Z,996.26
2016-06-13T04:56:06.298Z,996.2
2016-06-13T04:57:06.489Z,996.2
2016-06-13T04:58:06.273Z,996.23
2016-06-13T04:59:06.260Z,996.22
2016-06-13T05:00:06.247Z,996.23
2016-06-13T05:01:06.235Z,996.2
2016-06-13T05:02:06.223Z,996.22
2016-06-13T05:03:06.210Z,996.22
2016-06-13T05:04:06.198Z,996.21
2016-06-13T05:05:06.184Z,996.24
2016-06-13T05:06:06.172Z,996.2
2016-06-13T05:07:06.160Z,996.19
2016-06-13T05:08:06.147Z,996.19
2016-06-13T05:09:06.134Z,996.21
2016-06-13T05:10:06.122Z,996.21
2016-06-13T05:11:06.109Z,996.21
2016-06-13T05:12:06.097Z,996.21
2016-06-13T05:13:06.084Z,996.16
2016-06-13T05:14:06.057Z,996.16
2016-06-13T05:15:06.044Z,996.15
2016-06-13T05:16:06.046Z,996.12
2016-06-13T05:17:06.019Z,996.12
2016-06-13T05:18:06.006Z,996.1
2016-06-13T05:19:05.994Z,996.1
2016-06-13T05:20:05.981Z,996.12
2016-06-13T05:21:05.968Z,996.14
2016-06-13T05:22:05.956Z,996.12
2016-06-13T05:23:05.943Z,996.07
2016-06-13T05:24:05.930Z,996.08
2016-06-13T05:25:05.918Z,996.09
2016-06-13T05:26:05.906Z,996.09
2016-06-13T05:27:05.894Z,996.05
2016-06-13T05:28:05.880Z,996.08
2016-06-13T05:29:05.867Z,996
2016-06-13T05:30:05.856Z,996.04
2016-06-13T05:31:05.843Z,996.02
2016-06-13T05:32:05.830Z,996.04
2016-06-13T05:33:05.818Z,995.99
2016-06-13T05:34:05.805Z,996.04
2016-06-13T05:35:05.793Z,996.02
2016-06-13T05:36:05.780Z,996
2016-06-13T05:37:05.767Z,996.04
2016-06-13T05:38:05.755Z,996.02
2016-06-13T05:39:05.742Z,996.01
2016-06-13T05:40:05.714Z,996.04
2016-06-13T05:41:05.717Z,996.04
2016-06-13T05:42:05.690Z,996.03
2016-06-13T05:43:05.693Z,996.04
2016-06-13T05:44:05.664Z,996.05
2016-06-13T05:45:05.652Z,996.04
2016-06-13T05:46:05.639Z,995.99
2016-06-13T05:47:05.626Z,995.99
2016-06-13T05:48:05.614Z,995.99
2016-06-13T05:49:05.617Z,995.94
2016-06-13T05:50:05.589Z,996.01
2016-06-13T05:51:05.576Z,995.96
2016-06-13T05:52:05.563Z,996.01
2016-06-13T05:53:05.551Z,995.98
2016-06-13T05:54:05.539Z,996
2016-06-13T05:55:05.526Z,996.01
2016-06-13T05:56:05.513Z,996
2016-06-13T05:57:05.517Z,996.02
2016-06-13T05:58:05.489Z,996.03
2016-06-13T05:59:05.476Z,995.98
2016-06-13T06:00:05.479Z,996
2016-06-13T06:01:05.450Z,995.98
2016-06-13T06:02:05.438Z,995.97
2016-06-13T06:03:05.425Z,995.95
2016-06-13T06:04:05.413Z,995.97
2016-06-13T06:05:05.400Z,995.94
2016-06-13T06:06:05.389Z,995.98
2016-06-13T06:07:05.375Z,995.94
2016-06-13T06:08:05.362Z,995.97
2016-06-13T06:09:05.350Z,995.94
2016-06-13T06:10:05.322Z,995.93
2016-06-13T06:11:05.325Z,995.95
2016-06-13T06:12:05.296Z,995.93
2016-06-13T06:13:05.285Z,995.89
2016-06-13T06:14:05.272Z,995.88
2016-06-13T06:15:05.259Z,995.88
2016-06-13T06:16:05.262Z,995.89
2016-06-13T06:17:05.234Z,995.86
2016-06-13T06:18:05.221Z,995.86
2016-06-13T06:19:05.209Z,995.86
2016-06-13T06:20:05.196Z,995.85
2016-06-13T06:21:05.184Z,995.86
2016-06-13T06:22:05.171Z,995.84
2016-06-13T06:23:05.159Z,995.86
2016-06-13T06:24:05.147Z,995.82
2016-06-13T06:25:05.149Z,995.87
2016-06-13T06:26:05.121Z,995.85
2016-06-13T06:27:05.109Z,995.85
2016-06-13T06:28:05.409Z,995.86
2016-06-13T06:29:05.084Z,995.85
2016-06-13T06:30:05.071Z,995.85
2016-06-13T06:31:05.058Z,995.78
2016-06-13T06:32:05.030Z,995.82
2016-06-13T06:33:05.017Z,995.81
2016-06-13T06:34:05.021Z,995.87
2016-06-13T06:35:04.993Z,995.84
2016-06-13T06:36:04.981Z,995.83
2016-06-13T06:37:04.967Z,995.86
2016-06-13T06:38:04.954Z,995.84
2016-06-13T06:39:04.943Z,995.84
2016-06-13T06:40:04.930Z,995.83
2016-06-13T06:41:04.917Z,995.82
2016-06-13T06:42:04.905Z,995.81
2016-06-13T06:43:04.892Z,995.81
2016-06-13T06:44:04.880Z,995.8
2016-06-13T06:45:04.867Z,995.77
2016-06-13T06:46:04.854Z,995.74
2016-06-13T06:47:04.843Z,995.76
2016-06-13T06:48:04.829Z,995.78
2016-06-13T06:49:04.817Z,995.77
2016-06-13T06:50:04.804Z,995.76
2016-06-13T06:51:04.792Z,995.76
2016-06-13T06:52:04.780Z,995.76
2016-06-13T06:53:04.767Z,995.75
2016-06-13T06:54:04.739Z,995.72
2016-06-13T06:55:04.741Z,995.77
2016-06-13T06:56:04.917Z,995.71
2016-06-13T06:57:05.091Z,995.76
2016-06-13T06:58:04.688Z,995.77
2016-06-13T06:59:04.676Z,995.8
2016-06-13T07:00:04.663Z,995.75
2016-06-13T07:01:04.651Z,995.75
2016-06-13T07:02:04.638Z,995.8
2016-06-13T07:03:04.625Z,995.76
2016-06-13T07:04:04.863Z,995.78
2016-06-13T07:05:04.601Z,995.75
2016-06-13T07:06:04.588Z,995.77
2016-06-13T07:07:04.576Z,995.73
2016-06-13T07:08:04.563Z,995.78
2016-06-13T07:09:04.550Z,995.79
2016-06-13T07:10:04.538Z,995.8
2016-06-13T07:11:04.525Z,995.78
2016-06-13T07:12:05.184Z,995.77
2016-06-13T07:13:04.500Z,995.77
2016-06-13T07:14:04.488Z,995.77
2016-06-13T07:15:04.475Z,995.79
2016-06-13T07:16:04.463Z,995.76
2016-06-13T07:17:04.450Z,995.74
2016-06-13T07:18:04.438Z,995.77
2016-06-13T07:19:04.425Z,995.73
2016-06-13T07:20:04.911Z,995.73
2016-06-13T07:21:04.400Z,995.72
2016-06-13T07:22:04.372Z,995.72
2016-06-13T07:23:04.359Z,995.72
2016-06-13T07:24:04.346Z,995.7
2016-06-13T07:25:04.350Z,995.71
2016-06-13T07:26:04.321Z,995.73
2016-06-13T07:27:04.308Z,995.73
2016-06-13T07:28:05.000Z,995.72
2016-06-13T07:29:04.284Z,995.71
2016-06-13T07:30:04.271Z,995.71
2016-06-13T07:31:04.274Z,995.72
2016-06-13T07:32:04.245Z,995.7
2016-06-13T07:33:04.234Z,995.71
2016-06-13T07:34:04.220Z,995.73
2016-06-13T07:35:04.208Z,995.66
2016-06-13T07:36:04.196Z,995.68
2016-06-13T07:37:04.183Z,995.68
2016-06-13T07:38:04.171Z,995.66
2016-06-13T07:39:04.158Z,995.68
2016-06-13T07:40:04.145Z,995.68
2016-06-13T07:41:04.134Z,995.69
2016-06-13T07:42:04.120Z,995.69
2016-06-13T07:43:04.108Z,995.73
2016-06-13T07:44:04.252Z,995.67
2016-06-13T07:45:04.082Z,995.69
2016-06-13T07:46:04.070Z,995.7
2016-06-13T07:47:04.058Z,995.71
2016-06-13T07:48:04.030Z,995.71
2016-06-13T07:49:04.033Z,995.66
2016-06-13T07:50:04.004Z,995.68
2016-06-13T07:51:03.992Z,995.65
2016-06-13T07:52:05.042Z,995.71
2016-06-13T07:53:03.968Z,995.69
2016-06-13T07:54:03.954Z,995.73
2016-06-13T07:55:03.941Z,995.7
2016-06-13T07:56:03.930Z,995.72
2016-06-13T07:57:03.917Z,995.69
2016-06-13T07:58:04.325Z,995.7
2016-06-13T07:59:03.892Z,995.68
2016-06-13T08:00:04.239Z,995.66
2016-06-13T08:01:03.867Z,995.69
2016-06-13T08:02:03.854Z,995.7
2016-06-13T08:03:03.841Z,995.73
2016-06-13T08:04:03.829Z,995.68
2016-06-13T08:05:03.816Z,995.7
2016-06-13T08:06:03.803Z,995.72
2016-06-13T08:07:03.791Z,995.71
2016-06-13T08:08:04.216Z,995.67
2016-06-13T08:09:03.767Z,995.69
2016-06-13T08:10:03.737Z,995.64
2016-06-13T08:11:03.740Z,995.67
2016-06-13T08:12:03.713Z,995.66
2016-06-13T08:13:04.388Z,995.63
2016-06-13T08:14:03.687Z,995.7
2016-06-13T08:15:03.691Z,995.62
2016-06-13T08:16:03.677Z,995.65
2016-06-13T08:17:03.650Z,995.65
2016-06-13T08:18:03.637Z,995.65
2016-06-13T08:19:03.625Z,995.68
2016-06-13T08:20:03.612Z,995.65
2016-06-13T08:21:03.600Z,995.66
2016-06-13T08:22:03.587Z,995.63
2016-06-13T08:23:03.575Z,995.65
2016-06-13T08:24:03.562Z,995.63
2016-06-13T08:25:03.549Z,995.58
2016-06-13T08:26:03.537Z,995.64
2016-06-13T08:27:03.540Z,995.6
2016-06-13T08:28:03.511Z,995.56
2016-06-13T08:29:03.499Z,995.57
2016-06-13T08:30:03.487Z,995.57
2016-06-13T08:31:03.474Z,995.58
2016-06-13T08:32:03.462Z,995.55
2016-06-13T08:33:03.449Z,995.58
2016-06-13T08:34:03.436Z,995.58
2016-06-13T08:35:03.424Z,995.57
2016-06-13T08:36:03.396Z,995.59
2016-06-13T08:37:03.399Z,995.58
2016-06-13T08:38:03.371Z,995.57
2016-06-13T08:39:03.373Z,995.56
2016-06-13T08:40:03.346Z,995.5
2016-06-13T08:41:03.349Z,995.56
2016-06-13T08:42:03.320Z,995.5
2016-06-13T08:43:03.308Z,995.51
2016-06-13T08:44:03.295Z,995.47
2016-06-13T08:45:03.283Z,995.48
2016-06-13T08:46:03.270Z,995.5
2016-06-13T08:47:03.258Z,995.49
2016-06-13T08:48:03.245Z,995.54
2016-06-13T08:49:03.233Z,995.47
2016-06-13T08:50:03.220Z,995.45
2016-06-13T08:51:03.207Z,995.48
2016-06-13T08:52:03.195Z,995.48
2016-06-13T08:53:03.183Z,995.45
2016-06-13T08:54:03.169Z,995.43
2016-06-13T08:55:03.158Z,995.43
2016-06-13T08:56:03.145Z,995.44
2016-06-13T08:57:03.132Z,995.45
2016-06-13T08:58:03.760Z,995.44
2016-06-13T08:59:03.107Z,995.43
2016-06-13T09:00:03.094Z,995.41
2016-06-13T09:01:03.083Z,995.41
2016-06-13T09:02:03.054Z,995.44
2016-06-13T09:03:03.057Z,995.41
2016-06-13T09:04:03.044Z,995.42
2016-06-13T09:05:03.032Z,995.35
2016-06-13T09:06:03.003Z,995.37
2016-06-13T09:07:02.991Z,995.35
2016-06-13T09:08:02.979Z,995.36
2016-06-13T09:09:02.966Z,995.4
2016-06-13T09:10:02.969Z,995.36
2016-06-13T09:11:02.940Z,995.34
2016-06-13T09:12:02.928Z,995.35
2016-06-13T09:13:02.916Z,995.31
2016-06-13T09:14:02.903Z,995.33
2016-06-13T09:15:02.890Z,995.35
2016-06-13T09:16:02.879Z,995.38
2016-06-13T09:17:02.865Z,995.34
2016-06-13T09:18:02.853Z,995.34
2016-06-13T09:19:02.841Z,995.35
2016-06-13T09:20:02.828Z,995.31
2016-06-13T09:21:02.815Z,995.34
2016-06-13T09:22:02.803Z,995.33
2016-06-13T09:23:02.790Z,995.32
2016-06-13T09:24:02.777Z,995.31
2016-06-13T09:25:02.765Z,995.32
2016-06-13T09:26:02.753Z,995.33
2016-06-13T09:27:02.740Z,995.34
2016-06-13T09:28:03.571Z,995.38
2016-06-13T09:29:02.716Z,995.28
2016-06-13T09:30:02.702Z,995.26
2016-06-13T09:31:02.674Z,995.28
2016-06-13T09:32:02.678Z,995.23
2016-06-13T09:33:02.650Z,995.25
2016-06-13T09:34:02.653Z,995.21
2016-06-13T09:35:02.624Z,995.24
2016-06-13T09:36:02.611Z,995.24
2016-06-13T09:37:02.599Z,995.27
2016-06-13T09:38:02.586Z,995.23
2016-06-13T09:39:02.574Z,995.28
2016-06-13T09:40:02.561Z,995.27
2016-06-13T09:41:02.549Z,995.25
2016-06-13T09:42:02.536Z,995.24
2016-06-13T09:43:02.524Z,995.2
2016-06-13T09:44:02.512Z,995.26
2016-06-13T09:45:02.498Z,995.19
2016-06-13T09:46:02.485Z,995.22
2016-06-13T09:47:02.474Z,995.2
2016-06-13T09:48:02.461Z,995.17
2016-06-13T09:49:02.448Z,995.15
2016-06-13T09:50:02.436Z,995.11
2016-06-13T09:51:02.423Z,995.11
2016-06-13T09:52:02.411Z,995.09
2016-06-13T09:53:02.398Z,995.06
2016-06-13T09:54:02.385Z,995.08
2016-06-13T09:55:02.374Z,995.02
2016-06-13T09:56:02.360Z,995.01
2016-06-13T09:57:02.348Z,995.02
2016-06-13T09:58:02.336Z,994.98
2016-06-13T09:59:02.322Z,994.94
2016-06-13T10:00:02.310Z,994.96
2016-06-13T10:01:02.281Z,994.92
2016-06-13T10:02:02.270Z,994.96
2016-06-13T10:03:02.273Z,994.92
2016-06-13T10:04:02.259Z,994.92
2016-06-13T10:05:02.248Z,994.88
2016-06-13T10:06:02.235Z,994.88
2016-06-13T10:07:02.222Z,994.87
2016-06-13T10:08:02.194Z,994.87
2016-06-13T10:09:02.198Z,994.85
2016-06-13T10:10:02.169Z,994.85
2016-06-13T10:11:02.156Z,994.86
2016-06-13T10:12:02.160Z,994.85
2016-06-13T10:13:02.132Z,994.85
2016-06-13T10:14:02.134Z,994.84
2016-06-13T10:15:02.106Z,994.83
2016-06-13T10:16:02.110Z,994.89
2016-06-13T10:17:02.081Z,994.92
2016-06-13T10:18:02.069Z,994.95
2016-06-13T10:19:02.055Z,994.94
2016-06-13T10:20:02.044Z,994.96
2016-06-13T10:21:02.031Z,994.96
2016-06-13T10:22:02.018Z,994.94
2016-06-13T10:23:02.006Z,994.93
2016-06-13T10:24:01.994Z,994.92
2016-06-13T10:25:01.996Z,994.85
2016-06-13T10:26:01.968Z,994.95
2016-06-13T10:27:01.955Z,994.88
2016-06-13T10:28:01.944Z,994.85
2016-06-13T10:29:01.931Z,994.84
2016-06-13T10:30:01.917Z,994.88
2016-06-13T10:31:01.906Z,994.84
2016-06-13T10:32:01.893Z,994.8
2016-06-13T10:33:01.880Z,994.82
2016-06-13T10:34:01.868Z,994.8
2016-06-13T10:35:01.856Z,994.81
2016-06-13T10:36:01.843Z,994.8
2016-06-13T10:37:01.830Z,994.82
2016-06-13T10:38:01.817Z,994.8
2016-06-13T10:39:01.789Z,994.78
2016-06-13T10:40:01.792Z,994.77
2016-06-13T10:41:01.765Z,994.81
2016-06-13T10:42:02.362Z,994.74
2016-06-13T10:43:02.005Z,994.75
2016-06-13T10:44:01.742Z,994.81
2016-06-13T10:45:01.714Z,994.73
2016-06-13T10:46:01.702Z,994.78
2016-06-13T10:47:01.689Z,994.7
2016-06-13T10:48:01.676Z,994.7
2016-06-13T10:49:01.679Z,994.66
2016-06-13T10:50:01.651Z,994.62
2016-06-13T10:51:01.639Z,994.62
2016-06-13T10:52:01.626Z,994.63
2016-06-13T10:53:01.613Z,994.65
2016-06-13T10:54:01.601Z,994.62
2016-06-13T10:55:01.589Z,994.63
2016-06-13T10:56:01.576Z,994.62
2016-06-13T10:57:01.564Z,994.62
2016-06-13T10:58:01.551Z,994.57
2016-06-13T10:59:01.539Z,994.52
2016-06-13T11:00:01.526Z,994.56
2016-06-13T11:01:01.513Z,994.63
2016-06-13T11:02:01.501Z,994.53
2016-06-13T11:03:01.485Z,994.53
2016-06-13T11:04:01.472Z,994.53
2016-06-13T11:05:01.460Z,994.51
2016-06-13T11:06:01.447Z,994.5
2016-06-13T11:07:01.436Z,994.48
2016-06-13T11:08:01.423Z,994.44
2016-06-13T11:09:01.410Z,994.51
2016-06-13T11:10:01.398Z,994.54
2016-06-13T11:11:01.385Z,994.48
2016-06-13T11:12:01.372Z,994.52
2016-06-13T11:13:01.360Z,994.55
2016-06-13T11:14:01.347Z,994.5
2016-06-13T11:15:01.335Z,994.57
2016-06-13T11:16:01.322Z,994.53
2016-06-13T11:17:01.309Z,994.52
2016-06-13T11:18:01.297Z,994.54
2016-06-13T11:19:01.378Z,994.52
2016-06-13T11:20:01.271Z,994.53
2016-06-13T11:21:01.244Z,994.51
2016-06-13T11:22:01.247Z,994.48
2016-06-13T11:23:01.235Z,994.46
2016-06-13T11:24:01.221Z,994.42
2016-06-13T11:25:01.209Z,994.41
2016-06-13T11:26:01.181Z,994.41
2016-06-13T11:27:01.325Z,994.35
2016-06-13T11:28:01.171Z,994.42
2016-06-13T11:29:01.893Z,994.37
2016-06-13T11:30:01.287Z,994.43
2016-06-13T11:31:01.134Z,994.4
2016-06-13T11:32:01.105Z,994.38
2016-06-13T11:33:01.093Z,994.33
2016-06-13T11:34:01.080Z,994.37
2016-06-13T11:35:01.272Z,994.34
2016-06-13T11:36:01.056Z,994.35
2016-06-13T11:37:01.043Z,994.31
2016-06-13T11:38:01.046Z,994.31
2016-06-13T11:39:01.018Z,994.28
2016-06-13T11:40:01.005Z,994.29
2016-06-13T11:41:00.993Z,994.29
2016-06-13T11:42:00.996Z,994.23
2016-06-13T11:43:01.358Z,994.25
2016-06-13T11:44:00.955Z,994.19
2016-06-13T11:45:00.943Z,994.2
2016-06-13T11:46:00.931Z,994.2
2016-06-13T11:47:00.917Z,994.21
2016-06-13T11:48:00.904Z,994.18
2016-06-13T11:49:00.892Z,994.11
2016-06-13T11:50:00.879Z,994.09
2016-06-13T11:51:01.320Z,994.07
2016-06-13T11:52:00.855Z,994.09
2016-06-13T11:53:00.842Z,994.09
2016-06-13T11:54:00.830Z,994.13
2016-06-13T11:55:00.817Z,994.11
2016-06-13T11:56:00.804Z,994.16
2016-06-13T11:57:00.792Z,994.2
2016-06-13T11:58:00.780Z,994.2
2016-06-13T11:59:01.313Z,994.22
2016-06-13T12:00:00.754Z,994.19
2016-06-13T12:01:00.741Z,994.22
2016-06-13T12:02:00.730Z,994.2
2016-06-13T12:03:00.717Z,994.2
2016-06-13T12:04:00.703Z,994.15
2016-06-13T12:05:00.676Z,994.17
2016-06-13T12:06:00.678Z,994.12
2016-06-13T12:07:01.603Z,994.13
2016-06-13T12:08:00.654Z,994.1
2016-06-13T12:09:00.641Z,994.11
2016-06-13T12:10:00.629Z,994.07
2016-06-13T12:11:00.616Z,994.05
2016-06-13T12:12:00.603Z,994.03
2016-06-13T12:13:00.591Z,994.01
2016-06-13T12:14:00.578Z,994
2016-06-13T12:15:01.503Z,993.97
2016-06-13T12:16:00.538Z,993.97
2016-06-13T12:17:00.525Z,993.99
2016-06-13T12:18:00.512Z,993.96
2016-06-13T12:19:00.500Z,993.96
2016-06-13T12:20:00.503Z,993.96
2016-06-13T12:21:00.475Z,993.95
2016-06-13T12:22:00.462Z,994
2016-06-13T12:23:00.653Z,993.96
2016-06-13T12:24:00.437Z,993.91
2016-06-13T12:25:00.425Z,993.92
2016-06-13T12:26:00.413Z,993.93
2016-06-13T12:27:00.415Z,993.92
2016-06-13T12:28:00.387Z,993.92
2016-06-13T12:29:00.391Z,993.87
2016-06-13T12:30:00.362Z,993.93
2016-06-13T12:31:00.662Z,993.92